sensor_id;sensor_type;location;lat;lon;timestamp;P1;durP1;ratioP1;P2;durP2;ratioP2
15383;SDS011;7790;53.022;12.968;2023-04-24T00:02:00;11.80;;;10.60;;
15383;SDS011;7790;53.022;12.968;2023-04-24T00:06:01;12.17;;;10.97;;
15383;SDS011;7790;53.022;12.968;2023-04-24T00:10:02;10.60;;;9.60;;
15383;SDS011;7790;53.022;12.968;2023-04-24T00:14:03;11.50;;;10.40;;
15383;SDS011;7790;53.022;12.968;2023-04-24T00:18:04;11.17;;;10.17;;
15383;SDS011;7790;53.022;12.968;2023-04-24T00:22:05;10.77;;;9.77;;
15383;SDS011;7790;53.022;12.968;2023-04-24T00:26:06;9.80;;;8.90;;
15383;SDS011;7790;53.022;12.968;2023-04-24T00:30:07;10.90;;;9.80;;
15383;SDS011;7790;53.022;12.968;2023-04-24T00:34:08;10.40;;;9.40;;
15383;SDS011;7790;53.022;12.968;2023-04-24T00:38:10;10.10;;;9.20;;
15383;SDS011;7790;53.022;12.968;2023-04-24T00:42:11;10.03;;;9.03;;
15383;SDS011;7790;53.022;12.968;2023-04-24T00:46:13;9.87;;;8.97;;
15383;SDS011;7790;53.022;12.968;2023-04-24T00:50:16;9.27;;;8.37;;
15383;SDS011;7790;53.022;12.968;2023-04-24T00:54:18;9.67;;;8.67;;
15383;SDS011;7790;53.022;12.968;2023-04-24T00:58:18;9.37;;;8.57;;
15383;SDS011;7790;53.022;12.968;2023-04-24T01:02:20;9.00;;;8.07;;
15383;SDS011;7790;53.022;12.968;2023-04-24T01:06:22;8.67;;;7.77;;
15383;SDS011;7790;53.022;12.968;2023-04-24T01:10:28;8.87;;;8.07;;
15383;SDS011;7790;53.022;12.968;2023-04-24T01:14:31;8.47;;;7.47;;
15383;SDS011;7790;53.022;12.968;2023-04-24T01:18:32;7.43;;;6.83;;
15383;SDS011;7790;53.022;12.968;2023-04-24T01:22:34;7.70;;;7.00;;
15383;SDS011;7790;53.022;12.968;2023-04-24T01:26:34;8.10;;;7.40;;
15383;SDS011;7790;53.022;12.968;2023-04-24T01:30:35;7.70;;;7.00;;
15383;SDS011;7790;53.022;12.968;2023-04-24T01:34:37;7.80;;;7.10;;
15383;SDS011;7790;53.022;12.968;2023-04-24T01:38:38;7.63;;;6.93;;
15383;SDS011;7790;53.022;12.968;2023-04-24T01:42:41;7.80;;;7.00;;
15383;SDS011;7790;53.022;12.968;2023-04-24T01:46:42;7.67;;;6.97;;
15383;SDS011;7790;53.022;12.968;2023-04-24T01:50:43;7.27;;;6.57;;
15383;SDS011;7790;53.022;12.968;2023-04-24T01:54:45;6.70;;;6.10;;
15383;SDS011;7790;53.022;12.968;2023-04-24T01:58:46;6.73;;;5.23;;
15383;SDS011;7790;53.022;12.968;2023-04-24T02:02:49;6.03;;;5.50;;
15383;SDS011;7790;53.022;12.968;2023-04-24T02:06:50;6.07;;;5.57;;
15383;SDS011;7790;53.022;12.968;2023-04-24T02:10:51;6.63;;;6.03;;
15383;SDS011;7790;53.022;12.968;2023-04-24T02:14:52;6.60;;;6.00;;
15383;SDS011;7790;53.022;12.968;2023-04-24T02:18:52;6.37;;;5.87;;
15383;SDS011;7790;53.022;12.968;2023-04-24T02:22:53;5.90;;;5.40;;
15383;SDS011;7790;53.022;12.968;2023-04-24T02:26:55;5.70;;;5.20;;
15383;SDS011;7790;53.022;12.968;2023-04-24T02:30:56;5.50;;;5.00;;
15383;SDS011;7790;53.022;12.968;2023-04-24T02:34:58;5.60;;;5.10;;
15383;SDS011;7790;53.022;12.968;2023-04-24T02:38:59;5.53;;;5.03;;
15383;SDS011;7790;53.022;12.968;2023-04-24T02:43:01;4.90;;;4.40;;
15383;SDS011;7790;53.022;12.968;2023-04-24T02:47:02;6.30;;;4.10;;
15383;SDS011;7790;53.022;12.968;2023-04-24T02:51:04;4.70;;;4.30;;
15383;SDS011;7790;53.022;12.968;2023-04-24T02:55:06;5.03;;;4.40;;
15383;SDS011;7790;53.022;12.968;2023-04-24T02:59:08;4.33;;;3.80;;
15383;SDS011;7790;53.022;12.968;2023-04-24T03:03:09;4.17;;;3.70;;
15383;SDS011;7790;53.022;12.968;2023-04-24T03:07:10;3.90;;;3.60;;
15383;SDS011;7790;53.022;12.968;2023-04-24T03:11:11;4.27;;;3.93;;
15383;SDS011;7790;53.022;12.968;2023-04-24T03:15:12;4.33;;;3.33;;
15383;SDS011;7790;53.022;12.968;2023-04-24T03:19:13;3.80;;;3.40;;
15383;SDS011;7790;53.022;12.968;2023-04-24T03:23:28;3.30;;;3.10;;
15383;SDS011;7790;53.022;12.968;2023-04-24T03:27:29;3.60;;;3.30;;
15383;SDS011;7790;53.022;12.968;2023-04-24T03:31:35;3.30;;;3.00;;
15383;SDS011;7790;53.022;12.968;2023-04-24T03:35:35;3.50;;;3.20;;
15383;SDS011;7790;53.022;12.968;2023-04-24T03:39:41;3.40;;;3.10;;
15383;SDS011;7790;53.022;12.968;2023-04-24T03:43:43;2.93;;;2.73;;
15383;SDS011;7790;53.022;12.968;2023-04-24T03:47:44;4.80;;;3.10;;
15383;SDS011;7790;53.022;12.968;2023-04-24T03:51:46;3.73;;;2.97;;
15383;SDS011;7790;53.022;12.968;2023-04-24T03:55:54;2.63;;;2.43;;
15383;SDS011;7790;53.022;12.968;2023-04-24T03:59:58;2.97;;;2.77;;
15383;SDS011;7790;53.022;12.968;2023-04-24T04:04:00;2.80;;;2.60;;
15383;SDS011;7790;53.022;12.968;2023-04-24T04:08:03;3.20;;;2.50;;
15383;SDS011;7790;53.022;12.968;2023-04-24T04:12:04;2.90;;;2.70;;
15383;SDS011;7790;53.022;12.968;2023-04-24T04:16:06;2.70;;;2.50;;
15383;SDS011;7790;53.022;12.968;2023-04-24T04:20:09;2.70;;;2.50;;
15383;SDS011;7790;53.022;12.968;2023-04-24T04:24:12;3.30;;;2.50;;
15383;SDS011;7790;53.022;12.968;2023-04-24T04:28:17;2.70;;;2.50;;
15383;SDS011;7790;53.022;12.968;2023-04-24T04:32:21;2.30;;;2.10;;
15383;SDS011;7790;53.022;12.968;2023-04-24T04:36:23;2.50;;;2.30;;
15383;SDS011;7790;53.022;12.968;2023-04-24T04:40:33;2.57;;;2.37;;
15383;SDS011;7790;53.022;12.968;2023-04-24T04:44:38;2.90;;;2.70;;
15383;SDS011;7790;53.022;12.968;2023-04-24T04:48:41;3.90;;;2.50;;
15383;SDS011;7790;53.022;12.968;2023-04-24T04:52:43;2.53;;;2.33;;
15383;SDS011;7790;53.022;12.968;2023-04-24T04:56:55;2.80;;;2.60;;
15383;SDS011;7790;53.022;12.968;2023-04-24T05:00:57;2.90;;;2.33;;
15383;SDS011;7790;53.022;12.968;2023-04-24T05:05:04;3.40;;;2.57;;
15383;SDS011;7790;53.022;12.968;2023-04-24T05:09:06;2.97;;;2.67;;
15383;SDS011;7790;53.022;12.968;2023-04-24T05:13:20;4.53;;;2.70;;
15383;SDS011;7790;53.022;12.968;2023-04-24T05:17:21;2.70;;;2.50;;
15383;SDS011;7790;53.022;12.968;2023-04-24T05:21:24;3.67;;;2.57;;
15383;SDS011;7790;53.022;12.968;2023-04-24T05:25:26;3.93;;;2.53;;
15383;SDS011;7790;53.022;12.968;2023-04-24T05:29:31;2.60;;;2.40;;
15383;SDS011;7790;53.022;12.968;2023-04-24T05:33:33;2.67;;;2.40;;
15383;SDS011;7790;53.022;12.968;2023-04-24T05:37:34;2.70;;;2.50;;
15383;SDS011;7790;53.022;12.968;2023-04-24T05:41:35;3.60;;;2.63;;
15383;SDS011;7790;53.022;12.968;2023-04-24T05:45:36;3.10;;;2.53;;
15383;SDS011;7790;53.022;12.968;2023-04-24T05:49:37;3.43;;;2.50;;
15383;SDS011;7790;53.022;12.968;2023-04-24T05:53:39;2.83;;;2.63;;
15383;SDS011;7790;53.022;12.968;2023-04-24T05:57:40;2.40;;;2.20;;
15383;SDS011;7790;53.022;12.968;2023-04-24T06:01:41;4.00;;;2.50;;
15383;SDS011;7790;53.022;12.968;2023-04-24T06:05:50;2.40;;;2.20;;
15383;SDS011;7790;53.022;12.968;2023-04-24T06:09:51;2.70;;;2.50;;
15383;SDS011;7790;53.022;12.968;2023-04-24T06:13:52;19.30;;;3.67;;
15383;SDS011;7790;53.022;12.968;2023-04-24T06:18:11;6.17;;;2.97;;
15383;SDS011;7790;53.022;12.968;2023-04-24T06:22:14;6.13;;;2.50;;
15383;SDS011;7790;53.022;12.968;2023-04-24T06:26:15;9.07;;;2.93;;
15383;SDS011;7790;53.022;12.968;2023-04-24T06:30:16;4.73;;;2.53;;
15383;SDS011;7790;53.022;12.968;2023-04-24T06:34:18;3.97;;;2.47;;
15383;SDS011;7790;53.022;12.968;2023-04-24T06:38:19;4.03;;;2.77;;
15383;SDS011;7790;53.022;12.968;2023-04-24T06:42:21;4.00;;;2.67;;
15383;SDS011;7790;53.022;12.968;2023-04-24T06:46:23;2.60;;;2.40;;
15383;SDS011;7790;53.022;12.968;2023-04-24T06:50:26;6.00;;;2.90;;
15383;SDS011;7790;53.022;12.968;2023-04-24T06:54:27;3.80;;;2.33;;
15383;SDS011;7790;53.022;12.968;2023-04-24T06:58:28;5.87;;;2.60;;
15383;SDS011;7790;53.022;12.968;2023-04-24T07:02:30;7.83;;;2.50;;
15383;SDS011;7790;53.022;12.968;2023-04-24T07:06:31;3.77;;;2.40;;
15383;SDS011;7790;53.022;12.968;2023-04-24T07:10:32;3.93;;;2.10;;
15383;SDS011;7790;53.022;12.968;2023-04-24T07:14:35;2.40;;;2.20;;
15383;SDS011;7790;53.022;12.968;2023-04-24T07:18:36;3.23;;;2.23;;
15383;SDS011;7790;53.022;12.968;2023-04-24T07:22:37;2.40;;;2.20;;
15383;SDS011;7790;53.022;12.968;2023-04-24T07:26:39;4.27;;;2.10;;
15383;SDS011;7790;53.022;12.968;2023-04-24T07:30:40;3.37;;;1.90;;
15383;SDS011;7790;53.022;12.968;2023-04-24T07:34:44;4.47;;;2.03;;
15383;SDS011;7790;53.022;12.968;2023-04-24T07:38:45;8.80;;;2.30;;
15383;SDS011;7790;53.022;12.968;2023-04-24T07:42:46;3.10;;;1.90;;
15383;SDS011;7790;53.022;12.968;2023-04-24T07:46:50;3.40;;;1.80;;
15383;SDS011;7790;53.022;12.968;2023-04-24T07:50:51;2.20;;;1.90;;
15383;SDS011;7790;53.022;12.968;2023-04-24T07:54:54;2.00;;;1.90;;
15383;SDS011;7790;53.022;12.968;2023-04-24T07:58:58;3.13;;;2.23;;
15383;SDS011;7790;53.022;12.968;2023-04-24T08:02:59;2.43;;;1.77;;
15383;SDS011;7790;53.022;12.968;2023-04-24T08:07:00;2.20;;;1.70;;
15383;SDS011;7790;53.022;12.968;2023-04-24T08:11:01;1.60;;;1.50;;
15383;SDS011;7790;53.022;12.968;2023-04-24T08:15:02;1.60;;;1.50;;
15383;SDS011;7790;53.022;12.968;2023-04-24T08:19:04;1.83;;;1.63;;
15383;SDS011;7790;53.022;12.968;2023-04-24T08:23:04;1.90;;;1.70;;
15383;SDS011;7790;53.022;12.968;2023-04-24T08:27:05;1.70;;;1.60;;
15383;SDS011;7790;53.022;12.968;2023-04-24T08:31:06;1.87;;;1.77;;
15383;SDS011;7790;53.022;12.968;2023-04-24T08:35:07;1.40;;;1.30;;
15383;SDS011;7790;53.022;12.968;2023-04-24T08:39:09;2.23;;;1.27;;
15383;SDS011;7790;53.022;12.968;2023-04-24T08:43:10;1.60;;;1.50;;
15383;SDS011;7790;53.022;12.968;2023-04-24T08:47:12;1.63;;;1.20;;
15383;SDS011;7790;53.022;12.968;2023-04-24T08:51:13;1.87;;;1.57;;
15383;SDS011;7790;53.022;12.968;2023-04-24T08:55:14;2.60;;;1.67;;
15383;SDS011;7790;53.022;12.968;2023-04-24T08:59:18;2.53;;;1.30;;
15383;SDS011;7790;53.022;12.968;2023-04-24T09:03:19;1.50;;;1.40;;
15383;SDS011;7790;53.022;12.968;2023-04-24T09:07:22;1.40;;;1.30;;
15383;SDS011;7790;53.022;12.968;2023-04-24T09:11:26;1.60;;;1.50;;
15383;SDS011;7790;53.022;12.968;2023-04-24T09:15:27;1.57;;;1.40;;
15383;SDS011;7790;53.022;12.968;2023-04-24T09:19:29;2.57;;;1.37;;
15383;SDS011;7790;53.022;12.968;2023-04-24T09:23:30;1.40;;;1.30;;
15383;SDS011;7790;53.022;12.968;2023-04-24T09:27:33;2.93;;;1.80;;
15383;SDS011;7790;53.022;12.968;2023-04-24T09:31:34;16.70;;;2.80;;
15383;SDS011;7790;53.022;12.968;2023-04-24T09:35:35;14.93;;;2.90;;
15383;SDS011;7790;53.022;12.968;2023-04-24T09:39:36;13.53;;;3.30;;
15383;SDS011;7790;53.022;12.968;2023-04-24T09:43:37;8.93;;;2.97;;
15383;SDS011;7790;53.022;12.968;2023-04-24T09:47:38;5.77;;;2.50;;
15383;SDS011;7790;53.022;12.968;2023-04-24T09:51:39;8.37;;;3.20;;
15383;SDS011;7790;53.022;12.968;2023-04-24T09:55:42;5.67;;;2.97;;
15383;SDS011;7790;53.022;12.968;2023-04-24T09:59:46;6.33;;;3.27;;
15383;SDS011;7790;53.022;12.968;2023-04-24T10:03:47;3.83;;;3.07;;
15383;SDS011;7790;53.022;12.968;2023-04-24T10:07:48;5.93;;;2.90;;
15383;SDS011;7790;53.022;12.968;2023-04-24T10:11:50;4.77;;;2.60;;
15383;SDS011;7790;53.022;12.968;2023-04-24T10:15:51;3.80;;;2.77;;
15383;SDS011;7790;53.022;12.968;2023-04-24T10:19:53;5.20;;;2.50;;
15383;SDS011;7790;53.022;12.968;2023-04-24T10:23:55;4.80;;;2.30;;
15383;SDS011;7790;53.022;12.968;2023-04-24T10:27:56;3.53;;;2.70;;
15383;SDS011;7790;53.022;12.968;2023-04-24T10:31:59;4.97;;;2.77;;
15383;SDS011;7790;53.022;12.968;2023-04-24T10:36:00;4.27;;;2.50;;
15383;SDS011;7790;53.022;12.968;2023-04-24T10:40:02;3.47;;;2.80;;
15383;SDS011;7790;53.022;12.968;2023-04-24T10:44:13;12.20;;;3.17;;
15383;SDS011;7790;53.022;12.968;2023-04-24T10:48:15;3.57;;;2.40;;
15383;SDS011;7790;53.022;12.968;2023-04-24T10:52:16;5.27;;;2.43;;
15383;SDS011;7790;53.022;12.968;2023-04-24T10:56:17;7.47;;;2.40;;
15383;SDS011;7790;53.022;12.968;2023-04-24T11:00:19;3.43;;;2.20;;
15383;SDS011;7790;53.022;12.968;2023-04-24T11:04:31;4.00;;;2.40;;
15383;SDS011;7790;53.022;12.968;2023-04-24T11:08:37;4.57;;;2.27;;
15383;SDS011;7790;53.022;12.968;2023-04-24T11:12:38;3.90;;;2.67;;
15383;SDS011;7790;53.022;12.968;2023-04-24T11:16:51;3.97;;;2.30;;
15383;SDS011;7790;53.022;12.968;2023-04-24T11:20:54;16.63;;;2.87;;
15383;SDS011;7790;53.022;12.968;2023-04-24T11:24:55;7.63;;;2.20;;
15383;SDS011;7790;53.022;12.968;2023-04-24T11:29:06;10.33;;;2.60;;
15383;SDS011;7790;53.022;12.968;2023-04-24T11:33:08;5.97;;;2.30;;
15383;SDS011;7790;53.022;12.968;2023-04-24T11:37:09;6.90;;;2.40;;
15383;SDS011;7790;53.022;12.968;2023-04-24T11:41:10;6.60;;;2.27;;
15383;SDS011;7790;53.022;12.968;2023-04-24T11:45:20;6.83;;;2.50;;
15383;SDS011;7790;53.022;12.968;2023-04-24T11:49:22;4.53;;;2.40;;
15383;SDS011;7790;53.022;12.968;2023-04-24T11:53:24;3.87;;;2.23;;
15383;SDS011;7790;53.022;12.968;2023-04-24T11:57:25;4.63;;;2.27;;
15383;SDS011;7790;53.022;12.968;2023-04-24T12:01:42;4.50;;;1.90;;
15383;SDS011;7790;53.022;12.968;2023-04-24T12:05:46;6.97;;;2.03;;
15383;SDS011;7790;53.022;12.968;2023-04-24T12:09:48;6.97;;;2.20;;
15383;SDS011;7790;53.022;12.968;2023-04-24T12:13:57;4.87;;;2.10;;
15383;SDS011;7790;53.022;12.968;2023-04-24T12:17:58;6.13;;;1.93;;
15383;SDS011;7790;53.022;12.968;2023-04-24T12:22:00;5.80;;;2.37;;
15383;SDS011;7790;53.022;12.968;2023-04-24T12:26:05;5.47;;;1.97;;
15383;SDS011;7790;53.022;12.968;2023-04-24T12:30:09;3.10;;;1.80;;
15383;SDS011;7790;53.022;12.968;2023-04-24T12:34:22;4.70;;;1.70;;
15383;SDS011;7790;53.022;12.968;2023-04-24T12:38:25;7.07;;;2.00;;
15383;SDS011;7790;53.022;12.968;2023-04-24T12:42:27;2.87;;;1.60;;
15383;SDS011;7790;53.022;12.968;2023-04-24T12:46:30;5.27;;;2.10;;
15383;SDS011;7790;53.022;12.968;2023-04-24T12:50:30;3.17;;;1.60;;
15383;SDS011;7790;53.022;12.968;2023-04-24T12:54:34;3.70;;;1.60;;
15383;SDS011;7790;53.022;12.968;2023-04-24T12:58:35;1.37;;;1.27;;
15383;SDS011;7790;53.022;12.968;2023-04-24T13:02:36;2.00;;;1.63;;
15383;SDS011;7790;53.022;12.968;2023-04-24T13:06:37;2.67;;;1.67;;
15383;SDS011;7790;53.022;12.968;2023-04-24T13:10:38;2.17;;;1.60;;
15383;SDS011;7790;53.022;12.968;2023-04-24T13:14:39;2.70;;;1.70;;
15383;SDS011;7790;53.022;12.968;2023-04-24T13:18:40;1.53;;;1.23;;
15383;SDS011;7790;53.022;12.968;2023-04-24T13:22:40;3.10;;;1.60;;
15383;SDS011;7790;53.022;12.968;2023-04-24T13:26:41;1.97;;;1.50;;
15383;SDS011;7790;53.022;12.968;2023-04-24T13:30:42;3.73;;;1.47;;
15383;SDS011;7790;53.022;12.968;2023-04-24T13:34:45;2.40;;;1.60;;
15383;SDS011;7790;53.022;12.968;2023-04-24T13:38:46;5.83;;;1.60;;
15383;SDS011;7790;53.022;12.968;2023-04-24T13:42:47;2.20;;;1.40;;
15383;SDS011;7790;53.022;12.968;2023-04-24T13:46:49;2.87;;;1.10;;
15383;SDS011;7790;53.022;12.968;2023-04-24T13:50:52;2.53;;;1.50;;
15383;SDS011;7790;53.022;12.968;2023-04-24T13:54:52;2.17;;;1.33;;
15383;SDS011;7790;53.022;12.968;2023-04-24T13:58:53;1.53;;;1.20;;
15383;SDS011;7790;53.022;12.968;2023-04-24T14:02:54;3.73;;;1.50;;
15383;SDS011;7790;53.022;12.968;2023-04-24T14:06:55;3.37;;;1.40;;
15383;SDS011;7790;53.022;12.968;2023-04-24T14:10:56;1.27;;;1.17;;
15383;SDS011;7790;53.022;12.968;2023-04-24T14:14:57;2.50;;;1.23;;
15383;SDS011;7790;53.022;12.968;2023-04-24T14:18:58;1.37;;;1.10;;
15383;SDS011;7790;53.022;12.968;2023-04-24T14:23:02;1.30;;;1.20;;
15383;SDS011;7790;53.022;12.968;2023-04-24T14:27:04;1.77;;;1.40;;
15383;SDS011;7790;53.022;12.968;2023-04-24T14:31:05;1.57;;;1.10;;
15383;SDS011;7790;53.022;12.968;2023-04-24T14:35:06;1.83;;;1.00;;
15383;SDS011;7790;53.022;12.968;2023-04-24T14:39:07;1.37;;;1.27;;
15383;SDS011;7790;53.022;12.968;2023-04-24T14:43:08;2.73;;;1.23;;
15383;SDS011;7790;53.022;12.968;2023-04-24T14:47:08;1.30;;;1.00;;
15383;SDS011;7790;53.022;12.968;2023-04-24T14:51:09;2.13;;;1.10;;
15383;SDS011;7790;53.022;12.968;2023-04-24T14:55:10;1.03;;;1.00;;
15383;SDS011;7790;53.022;12.968;2023-04-24T14:59:11;1.23;;;1.13;;
15383;SDS011;7790;53.022;12.968;2023-04-24T15:03:12;2.77;;;1.50;;
15383;SDS011;7790;53.022;12.968;2023-04-24T15:07:13;2.30;;;1.20;;
15383;SDS011;7790;53.022;12.968;2023-04-24T15:11:14;4.03;;;1.37;;
15383;SDS011;7790;53.022;12.968;2023-04-24T15:15:15;1.40;;;1.20;;
15383;SDS011;7790;53.022;12.968;2023-04-24T15:19:15;1.73;;;1.50;;
15383;SDS011;7790;53.022;12.968;2023-04-24T15:23:16;1.57;;;1.10;;
15383;SDS011;7790;53.022;12.968;2023-04-24T15:27:17;2.40;;;1.40;;
15383;SDS011;7790;53.022;12.968;2023-04-24T15:31:18;1.77;;;1.40;;
15383;SDS011;7790;53.022;12.968;2023-04-24T15:35:20;2.97;;;1.23;;
15383;SDS011;7790;53.022;12.968;2023-04-24T15:39:22;1.40;;;1.00;;
15383;SDS011;7790;53.022;12.968;2023-04-24T15:43:26;2.00;;;1.20;;
15383;SDS011;7790;53.022;12.968;2023-04-24T15:47:31;3.53;;;1.43;;
15383;SDS011;7790;53.022;12.968;2023-04-24T15:51:32;1.33;;;1.20;;
15383;SDS011;7790;53.022;12.968;2023-04-24T15:55:33;1.20;;;1.00;;
15383;SDS011;7790;53.022;12.968;2023-04-24T15:59:36;1.30;;;1.20;;
15383;SDS011;7790;53.022;12.968;2023-04-24T16:03:37;1.30;;;1.20;;
15383;SDS011;7790;53.022;12.968;2023-04-24T16:07:38;1.80;;;1.20;;
15383;SDS011;7790;53.022;12.968;2023-04-24T16:11:39;1.83;;;1.30;;
15383;SDS011;7790;53.022;12.968;2023-04-24T16:15:40;1.60;;;1.00;;
15383;SDS011;7790;53.022;12.968;2023-04-24T16:19:41;1.80;;;1.03;;
15383;SDS011;7790;53.022;12.968;2023-04-24T16:23:42;1.33;;;1.00;;
15383;SDS011;7790;53.022;12.968;2023-04-24T16:27:42;1.20;;;0.93;;
15383;SDS011;7790;53.022;12.968;2023-04-24T16:31:43;1.20;;;0.97;;
15383;SDS011;7790;53.022;12.968;2023-04-24T16:35:44;1.20;;;0.90;;
15383;SDS011;7790;53.022;12.968;2023-04-24T16:39:45;2.13;;;1.10;;
15383;SDS011;7790;53.022;12.968;2023-04-24T16:43:46;1.57;;;1.03;;
15383;SDS011;7790;53.022;12.968;2023-04-24T16:47:47;2.10;;;1.10;;
15383;SDS011;7790;53.022;12.968;2023-04-24T16:51:48;0.90;;;0.90;;
15383;SDS011;7790;53.022;12.968;2023-04-24T16:55:49;1.57;;;1.00;;
15383;SDS011;7790;53.022;12.968;2023-04-24T16:59:50;1.77;;;1.10;;
15383;SDS011;7790;53.022;12.968;2023-04-24T17:03:51;1.13;;;1.03;;
15383;SDS011;7790;53.022;12.968;2023-04-24T17:07:52;2.73;;;1.00;;
15383;SDS011;7790;53.022;12.968;2023-04-24T17:11:53;1.20;;;1.10;;
15383;SDS011;7790;53.022;12.968;2023-04-24T17:15:54;1.20;;;1.10;;
15383;SDS011;7790;53.022;12.968;2023-04-24T17:19:55;0.93;;;0.90;;
15383;SDS011;7790;53.022;12.968;2023-04-24T17:23:56;1.10;;;1.00;;
15383;SDS011;7790;53.022;12.968;2023-04-24T17:27:57;4.40;;;1.30;;
15383;SDS011;7790;53.022;12.968;2023-04-24T17:31:57;1.87;;;1.00;;
15383;SDS011;7790;53.022;12.968;2023-04-24T17:35:59;4.47;;;1.47;;
15383;SDS011;7790;53.022;12.968;2023-04-24T17:40:03;5.17;;;1.43;;
15383;SDS011;7790;53.022;12.968;2023-04-24T17:44:04;4.57;;;1.47;;
15383;SDS011;7790;53.022;12.968;2023-04-24T17:48:05;5.77;;;1.53;;
15383;SDS011;7790;53.022;12.968;2023-04-24T17:52:06;8.40;;;1.50;;
15383;SDS011;7790;53.022;12.968;2023-04-24T17:56:07;3.47;;;1.17;;
15383;SDS011;7790;53.022;12.968;2023-04-24T18:00:08;4.40;;;1.43;;
15383;SDS011;7790;53.022;12.968;2023-04-24T18:04:10;8.27;;;1.80;;
15383;SDS011;7790;53.022;12.968;2023-04-24T18:08:11;5.53;;;1.40;;
15383;SDS011;7790;53.022;12.968;2023-04-24T18:12:12;6.10;;;1.40;;
15383;SDS011;7790;53.022;12.968;2023-04-24T18:16:13;2.70;;;1.50;;
15383;SDS011;7790;53.022;12.968;2023-04-24T18:20:14;1.93;;;1.10;;
15383;SDS011;7790;53.022;12.968;2023-04-24T18:24:17;3.67;;;1.40;;
15383;SDS011;7790;53.022;12.968;2023-04-24T18:28:18;2.37;;;0.97;;
15383;SDS011;7790;53.022;12.968;2023-04-24T18:32:19;2.20;;;1.10;;
15383;SDS011;7790;53.022;12.968;2023-04-24T18:36:20;2.80;;;1.27;;
15383;SDS011;7790;53.022;12.968;2023-04-24T18:40:21;3.73;;;1.27;;
15383;SDS011;7790;53.022;12.968;2023-04-24T18:44:22;2.03;;;1.00;;
15383;SDS011;7790;53.022;12.968;2023-04-24T18:48:25;1.90;;;1.23;;
15383;SDS011;7790;53.022;12.968;2023-04-24T18:52:27;3.73;;;1.10;;
15383;SDS011;7790;53.022;12.968;2023-04-24T18:56:28;2.07;;;1.10;;
15383;SDS011;7790;53.022;12.968;2023-04-24T19:00:30;3.37;;;1.40;;
15383;SDS011;7790;53.022;12.968;2023-04-24T19:04:31;2.03;;;1.07;;
15383;SDS011;7790;53.022;12.968;2023-04-24T19:08:32;1.80;;;0.97;;
15383;SDS011;7790;53.022;12.968;2023-04-24T19:12:32;4.10;;;1.10;;
15383;SDS011;7790;53.022;12.968;2023-04-24T19:16:33;2.13;;;1.10;;
15383;SDS011;7790;53.022;12.968;2023-04-24T19:20:34;1.37;;;1.10;;
15383;SDS011;7790;53.022;12.968;2023-04-24T19:24:35;0.97;;;0.83;;
15383;SDS011;7790;53.022;12.968;2023-04-24T19:28:36;3.13;;;1.10;;
15383;SDS011;7790;53.022;12.968;2023-04-24T19:32:36;2.17;;;1.10;;
15383;SDS011;7790;53.022;12.968;2023-04-24T19:36:37;1.47;;;1.17;;
15383;SDS011;7790;53.022;12.968;2023-04-24T19:40:38;1.20;;;1.10;;
15383;SDS011;7790;53.022;12.968;2023-04-24T19:44:39;1.87;;;1.20;;
15383;SDS011;7790;53.022;12.968;2023-04-24T19:48:40;1.60;;;1.03;;
15383;SDS011;7790;53.022;12.968;2023-04-24T19:52:41;1.10;;;0.77;;
15383;SDS011;7790;53.022;12.968;2023-04-24T19:56:41;1.93;;;0.90;;
15383;SDS011;7790;53.022;12.968;2023-04-24T20:00:42;1.03;;;0.90;;
15383;SDS011;7790;53.022;12.968;2023-04-24T20:04:43;0.77;;;0.77;;
15383;SDS011;7790;53.022;12.968;2023-04-24T20:08:44;1.70;;;0.87;;
15383;SDS011;7790;53.022;12.968;2023-04-24T20:12:45;0.90;;;0.90;;
15383;SDS011;7790;53.022;12.968;2023-04-24T20:16:46;0.83;;;0.70;;
15383;SDS011;7790;53.022;12.968;2023-04-24T20:20:47;0.93;;;0.70;;
15383;SDS011;7790;53.022;12.968;2023-04-24T20:24:48;1.07;;;1.00;;
15383;SDS011;7790;53.022;12.968;2023-04-24T20:28:49;1.13;;;0.83;;
15383;SDS011;7790;53.022;12.968;2023-04-24T20:32:50;2.27;;;1.00;;
15383;SDS011;7790;53.022;12.968;2023-04-24T20:36:51;1.40;;;1.10;;
15383;SDS011;7790;53.022;12.968;2023-04-24T20:40:52;1.33;;;0.90;;
15383;SDS011;7790;53.022;12.968;2023-04-24T20:44:53;2.30;;;0.80;;
15383;SDS011;7790;53.022;12.968;2023-04-24T20:48:55;1.10;;;0.73;;
15383;SDS011;7790;53.022;12.968;2023-04-24T20:52:56;2.17;;;0.87;;
15383;SDS011;7790;53.022;12.968;2023-04-24T20:56:57;1.10;;;1.00;;
15383;SDS011;7790;53.022;12.968;2023-04-24T21:00:58;1.50;;;1.10;;
15383;SDS011;7790;53.022;12.968;2023-04-24T21:04:59;1.00;;;0.73;;
15383;SDS011;7790;53.022;12.968;2023-04-24T21:08:59;0.90;;;0.70;;
15383;SDS011;7790;53.022;12.968;2023-04-24T21:13:00;0.70;;;0.70;;
15383;SDS011;7790;53.022;12.968;2023-04-24T21:17:01;0.70;;;0.70;;
15383;SDS011;7790;53.022;12.968;2023-04-24T21:21:02;0.97;;;0.80;;
15383;SDS011;7790;53.022;12.968;2023-04-24T21:25:03;0.73;;;0.73;;
15383;SDS011;7790;53.022;12.968;2023-04-24T21:29:04;1.13;;;0.80;;
15383;SDS011;7790;53.022;12.968;2023-04-24T21:33:05;0.70;;;0.70;;
15383;SDS011;7790;53.022;12.968;2023-04-24T21:37:06;0.60;;;0.57;;
15383;SDS011;7790;53.022;12.968;2023-04-24T21:41:07;0.70;;;0.70;;
15383;SDS011;7790;53.022;12.968;2023-04-24T21:45:08;0.70;;;0.70;;
15383;SDS011;7790;53.022;12.968;2023-04-24T21:49:09;0.90;;;0.90;;
15383;SDS011;7790;53.022;12.968;2023-04-24T21:53:10;1.43;;;0.90;;
15383;SDS011;7790;53.022;12.968;2023-04-24T21:57:11;0.80;;;0.80;;
15383;SDS011;7790;53.022;12.968;2023-04-24T22:01:12;1.23;;;0.83;;
15383;SDS011;7790;53.022;12.968;2023-04-24T22:05:14;0.80;;;0.80;;
15383;SDS011;7790;53.022;12.968;2023-04-24T22:09:16;0.80;;;0.80;;
15383;SDS011;7790;53.022;12.968;2023-04-24T22:13:17;1.17;;;0.80;;
15383;SDS011;7790;53.022;12.968;2023-04-24T22:17:18;1.00;;;0.90;;
15383;SDS011;7790;53.022;12.968;2023-04-24T22:21:19;0.87;;;0.87;;
15383;SDS011;7790;53.022;12.968;2023-04-24T22:25:21;1.03;;;0.83;;
15383;SDS011;7790;53.022;12.968;2023-04-24T22:29:22;1.00;;;0.90;;
15383;SDS011;7790;53.022;12.968;2023-04-24T22:33:23;0.70;;;0.63;;
15383;SDS011;7790;53.022;12.968;2023-04-24T22:37:24;0.70;;;0.70;;
15383;SDS011;7790;53.022;12.968;2023-04-24T22:41:25;0.80;;;0.80;;
15383;SDS011;7790;53.022;12.968;2023-04-24T22:45:26;1.10;;;1.00;;
15383;SDS011;7790;53.022;12.968;2023-04-24T22:49:26;0.77;;;0.77;;
15383;SDS011;7790;53.022;12.968;2023-04-24T22:53:27;1.37;;;0.90;;
15383;SDS011;7790;53.022;12.968;2023-04-24T22:57:28;0.77;;;0.77;;
15383;SDS011;7790;53.022;12.968;2023-04-24T23:01:29;1.27;;;0.90;;
15383;SDS011;7790;53.022;12.968;2023-04-24T23:05:30;0.70;;;0.70;;
15383;SDS011;7790;53.022;12.968;2023-04-24T23:09:30;1.27;;;0.73;;
15383;SDS011;7790;53.022;12.968;2023-04-24T23:13:31;0.80;;;0.73;;
15383;SDS011;7790;53.022;12.968;2023-04-24T23:17:32;1.40;;;1.00;;
15383;SDS011;7790;53.022;12.968;2023-04-24T23:21:33;1.60;;;0.67;;
15383;SDS011;7790;53.022;12.968;2023-04-24T23:25:34;0.87;;;0.87;;
15383;SDS011;7790;53.022;12.968;2023-04-24T23:29:35;1.90;;;0.77;;
15383;SDS011;7790;53.022;12.968;2023-04-24T23:33:36;0.70;;;0.70;;
15383;SDS011;7790;53.022;12.968;2023-04-24T23:37:37;1.17;;;1.00;;
15383;SDS011;7790;53.022;12.968;2023-04-24T23:41:38;0.73;;;0.73;;
15383;SDS011;7790;53.022;12.968;2023-04-24T23:45:39;1.40;;;0.80;;
15383;SDS011;7790;53.022;12.968;2023-04-24T23:49:39;1.07;;;0.80;;
15383;SDS011;7790;53.022;12.968;2023-04-24T23:53:40;0.80;;;0.80;;
15383;SDS011;7790;53.022;12.968;2023-04-24T23:57:45;2.20;;;1.00;;
